Time;durP1;ratioP1;P1;durP2;ratioP2;P2;SDS_P1;SDS_P2;PMS_P1;PMS_P2;Temp;Humidity;BMP_temperature;BMP_pressure;BME280_temperature;BME280_humidity;BME280_pressure;Samples;Min_cycle;Max_cycle;Signal;HPM_P1;HPM_P2
2024/01/27 00:00:07;;;;;;;26.80;18.05;;;;;;;-145.63;100.00;61273.97;5034891;28;20044;-67
2024/01/27 00:02:33;;;;;;;23.55;16.83;;;;;;;-145.63;100.00;61273.97;5030266;28;20042;-68
2024/01/27 00:04:59;;;;;;;23.95;17.33;;;;;;;-145.63;100.00;61273.97;5015782;28;20168;-68
2024/01/27 00:07:27;;;;;;;22.88;16.52;;;;;;;-145.63;100.00;61273.97;5035295;28;20064;-67
2024/01/27 00:09:52;;;;;;;26.77;17.10;;;;;;;-145.63;100.00;61273.97;5035054;28;20095;-67
2024/01/27 00:12:18;;;;;;;24.77;17.33;;;;;;;-145.63;100.00;61273.97;5034986;28;20034;-67
2024/01/27 00:14:44;;;;;;;26.50;18.13;;;;;;;-145.63;100.00;61273.97;5034707;28;20026;-68
2024/01/27 00:17:10;;;;;;;23.48;16.90;;;;;;;-145.63;100.00;61273.97;5023976;28;20064;-67
2024/01/27 00:19:35;;;;;;;22.65;16.23;;;;;;;-145.63;100.00;61273.97;5015222;28;20037;-67
2024/01/27 00:22:02;;;;;;;23.58;16.48;;;;;;;-145.63;100.00;61273.97;5030983;28;20037;-68
2024/01/27 00:24:27;;;;;;;25.15;17.08;;;;;;;-145.63;100.00;61273.97;5022866;28;20088;-69
2024/01/27 00:26:53;;;;;;;26.52;17.15;;;;;;;-145.63;100.00;61273.97;5022572;28;20030;-66
2024/01/27 00:29:19;;;;;;;26.77;17.67;;;;;;;-145.63;100.00;61273.97;5034448;28;20099;-69
2024/01/27 00:31:45;;;;;;;27.23;17.42;;;;;;;-145.63;100.00;61273.97;5034743;28;20033;-67
2024/01/27 00:34:10;;;;;;;28.92;17.73;;;;;;;-145.63;100.00;61273.97;5034731;28;20120;-66
2024/01/27 00:36:39;;;;;;;25.48;17.33;;;;;;;-145.63;100.00;61273.97;5035968;28;20120;-67
2024/01/27 00:39:04;;;;;;;23.40;16.05;;;;;;;-145.63;100.00;61273.97;5034171;28;20037;-69
2024/01/27 00:41:30;;;;;;;22.83;16.08;;;;;;;-145.63;100.00;61273.97;5033972;28;20359;-68
2024/01/27 00:43:56;;;;;;;24.95;17.15;;;;;;;-145.63;100.00;61273.97;5034243;28;20079;-68
2024/01/27 00:46:21;;;;;;;24.23;15.52;;;;;;;-145.63;100.00;61273.97;5034719;28;20026;-68
2024/01/27 00:48:47;;;;;;;20.88;15.48;;;;;;;-145.63;100.00;61273.97;5033138;28;20025;-68
2024/01/27 00:51:13;;;;;;;25.23;16.42;;;;;;;-145.63;100.00;61273.97;5033618;28;20057;-69
2024/01/27 00:53:39;;;;;;;24.45;16.33;;;;;;;-145.63;100.00;61273.97;5034670;28;20032;-66
2024/01/27 00:56:05;;;;;;;22.67;14.73;;;;;;;-145.63;100.00;61273.97;5034221;28;20033;-67
2024/01/27 00:58:31;;;;;;;23.17;15.55;;;;;;;-145.63;100.00;61273.97;5034478;28;20505;-68
2024/01/27 01:00:57;;;;;;;23.67;15.70;;;;;;;-145.63;100.00;61273.97;5033941;28;20056;-66
2024/01/27 01:03:22;;;;;;;22.70;15.65;;;;;;;-145.63;100.00;61273.97;5022491;28;20038;-67
2024/01/27 01:05:48;;;;;;;23.85;16.83;;;;;;;-145.63;100.00;61273.97;5020188;28;20025;-68
2024/01/27 01:08:13;;;;;;;24.35;16.85;;;;;;;-145.63;100.00;61273.97;5033736;28;20421;-68
2024/01/27 01:10:39;;;;;;;22.73;16.40;;;;;;;-145.63;100.00;61273.97;5033885;28;20026;-67
2024/01/27 01:13:05;;;;;;;25.60;17.05;;;;;;;-145.63;100.00;61273.97;5033458;28;20140;-67
2024/01/27 01:15:31;;;;;;;24.02;16.08;;;;;;;-145.63;100.00;61273.97;5034056;28;20054;-67
2024/01/27 01:17:57;;;;;;;24.23;16.23;;;;;;;-145.63;100.00;61273.97;5016240;28;20037;-67
2024/01/27 01:20:22;;;;;;;24.15;16.50;;;;;;;-145.63;100.00;61273.97;5016446;28;20033;-67
2024/01/27 01:22:48;;;;;;;23.83;16.30;;;;;;;-145.63;100.00;61273.97;5013808;28;20474;-69
2024/01/27 01:25:14;;;;;;;20.60;14.85;;;;;;;-145.63;100.00;61273.97;5031575;28;20129;-68
2024/01/27 01:27:39;;;;;;;22.58;15.90;;;;;;;-145.63;100.00;61273.97;5033577;28;20455;-68
2024/01/27 01:30:05;;;;;;;23.33;16.40;;;;;;;-145.63;100.00;61273.97;5033115;28;20061;-70
2024/01/27 01:32:31;;;;;;;24.40;16.00;;;;;;;-145.63;100.00;61273.97;5032987;28;20090;-67
2024/01/27 01:34:57;;;;;;;22.70;16.00;;;;;;;-145.63;100.00;61273.97;5033936;28;20526;-68
2024/01/27 01:37:22;;;;;;;23.45;15.77;;;;;;;-145.63;100.00;61273.97;5032924;28;20510;-67
2024/01/27 01:39:48;;;;;;;22.33;14.30;;;;;;;-145.63;100.00;61273.97;5033187;28;20052;-67
2024/01/27 01:42:13;;;;;;;21.35;14.00;;;;;;;-145.63;100.00;61273.97;5022354;28;20022;-67
2024/01/27 01:44:39;;;;;;;23.38;15.75;;;;;;;-145.63;100.00;61273.97;5018482;28;20040;-66
2024/01/27 01:47:05;;;;;;;24.75;14.82;;;;;;;-145.63;100.00;61273.97;5032738;28;20144;-66
2024/01/27 01:49:31;;;;;;;21.27;14.60;;;;;;;-145.63;100.00;61273.97;5032858;28;20116;-68
2024/01/27 01:51:57;;;;;;;21.08;14.35;;;;;;;-145.63;100.00;61273.97;5033186;28;20104;-66
2024/01/27 01:54:27;;;;;;;22.08;14.90;;;;;;;-145.63;100.00;61273.97;5032156;28;20126;-66
2024/01/27 01:56:54;;;;;;;22.17;13.80;;;;;;;-145.63;100.00;61273.97;5032990;28;20033;-67
2024/01/27 01:59:20;;;;;;;22.25;14.43;;;;;;;-145.63;100.00;61273.97;5032856;28;20064;-67
2024/01/27 02:01:46;;;;;;;22.67;14.10;;;;;;;-145.63;100.00;61273.97;5033256;28;20069;-66
2024/01/27 02:04:11;;;;;;;19.55;13.65;;;;;;;-145.63;100.00;61273.97;5015364;28;20033;-67
2024/01/27 02:06:37;;;;;;;21.08;13.90;;;;;;;-145.63;100.00;61273.97;5025802;28;20040;-65
2024/01/27 02:09:02;;;;;;;21.05;13.77;;;;;;;-145.63;100.00;61273.97;5031173;28;20045;-64
2024/01/27 02:11:28;;;;;;;18.45;13.45;;;;;;;-145.63;100.00;61273.97;5032894;28;20029;-67
2024/01/27 02:13:54;;;;;;;20.27;14.38;;;;;;;-145.63;100.00;61273.97;5033549;28;20021;-67
2024/01/27 02:16:19;;;;;;;22.58;15.07;;;;;;;-145.63;100.00;61273.97;5037036;28;20103;-67
2024/01/27 02:18:45;;;;;;;24.25;15.98;;;;;;;-145.63;100.00;61273.97;5052901;28;20072;-68
2024/01/27 02:21:11;;;;;;;22.33;15.23;;;;;;;-145.63;100.00;61273.97;5036103;28;20088;-68
2024/01/27 02:23:36;;;;;;;21.60;14.07;;;;;;;-145.63;100.00;61273.97;5017038;28;20344;-68
2024/01/27 02:26:02;;;;;;;23.08;14.70;;;;;;;-145.63;100.00;61273.97;5032859;28;20037;-67
2024/01/27 02:28:27;;;;;;;22.17;14.95;;;;;;;-145.63;100.00;61273.97;5032819;28;20029;-68
2024/01/27 02:30:53;;;;;;;21.25;14.80;;;;;;;-145.63;100.00;61273.97;5033296;28;20370;-66
2024/01/27 02:33:18;;;;;;;20.30;13.63;;;;;;;-145.63;100.00;61273.97;5031780;28;20029;-67
2024/01/27 02:35:44;;;;;;;20.83;14.40;;;;;;;-145.63;100.00;61273.97;5033062;28;20062;-66
2024/01/27 02:38:10;;;;;;;21.92;14.32;;;;;;;-145.63;100.00;61273.97;5032598;28;20033;-67
2024/01/27 02:40:35;;;;;;;19.20;13.40;;;;;;;-145.63;100.00;61273.97;5032838;28;20064;-67
2024/01/27 02:43:01;;;;;;;20.30;13.50;;;;;;;-145.63;100.00;61273.97;5028457;28;20138;-67
2024/01/27 02:45:26;;;;;;;19.75;13.02;;;;;;;-145.63;100.00;61273.97;5020539;28;20505;-67
2024/01/27 02:47:52;;;;;;;21.85;14.00;;;;;;;-145.63;100.00;61273.97;5031633;28;20033;-68
2024/01/27 02:50:18;;;;;;;20.40;13.05;;;;;;;-145.63;100.00;61273.97;5032557;28;20029;-68
2024/01/27 02:52:44;;;;;;;19.90;13.52;;;;;;;-145.63;100.00;61273.97;5028627;28;20040;-66
2024/01/27 02:55:09;;;;;;;17.77;12.65;;;;;;;-145.63;100.00;61273.97;5032295;28;20038;-68
2024/01/27 02:57:35;;;;;;;18.60;12.65;;;;;;;-145.63;100.00;61273.97;5032329;28;20026;-67
2024/01/27 03:00:00;;;;;;;17.42;12.25;;;;;;;-145.63;100.00;61273.97;5032122;28;20022;-68
2024/01/27 03:02:26;;;;;;;20.73;12.15;;;;;;;-145.63;100.00;61273.97;5029896;28;20095;-71
2024/01/27 03:04:51;;;;;;;17.20;11.57;;;;;;;-145.63;100.00;61273.97;5033104;28;20022;-67
2024/01/27 03:07:17;;;;;;;16.55;11.27;;;;;;;-145.63;100.00;61273.97;5035733;28;20112;-68
2024/01/27 03:09:43;;;;;;;19.60;12.20;;;;;;;-145.63;100.00;61273.97;5036124;28;20148;-68
2024/01/27 03:12:08;;;;;;;18.02;12.35;;;;;;;-145.63;100.00;61273.97;5037008;28;20033;-67
2024/01/27 03:14:34;;;;;;;17.48;12.50;;;;;;;-145.63;100.00;61273.97;5040603;28;20112;-66
2024/01/27 03:17:00;;;;;;;17.02;11.23;;;;;;;-145.63;100.00;61273.97;5039933;28;20095;-67
2024/01/27 03:19:25;;;;;;;17.52;11.75;;;;;;;-145.63;100.00;61273.97;5041081;28;20099;-67
2024/01/27 03:21:51;;;;;;;17.15;11.98;;;;;;;-145.63;100.00;61273.97;5025991;28;20033;-67
2024/01/27 03:24:16;;;;;;;15.32;10.98;;;;;;;-145.63;100.00;61273.97;5036000;28;20029;-66
2024/01/27 03:26:42;;;;;;;19.13;11.88;;;;;;;-145.63;100.00;61273.97;5036725;28;20030;-68
2024/01/27 03:29:08;;;;;;;20.17;12.73;;;;;;;-145.63;100.00;61273.97;5035916;28;20025;-68
2024/01/27 03:31:34;;;;;;;19.20;11.68;;;;;;;-145.63;100.00;61273.97;5026244;28;20069;-67
2024/01/27 03:34:00;;;;;;;20.25;11.63;;;;;;;-145.63;100.00;61273.97;5018755;28;20037;-67
2024/01/27 03:36:26;;;;;;;18.52;11.30;;;;;;;-145.63;100.00;61273.97;5035587;28;20061;-68
2024/01/27 03:38:51;;;;;;;17.23;11.25;;;;;;;-145.63;100.00;61273.97;5050593;28;20037;-68
2024/01/27 03:41:17;;;;;;;19.58;11.70;;;;;;;-145.63;100.00;61273.97;5035019;28;20041;-66
2024/01/27 03:43:42;;;;;;;15.25;10.13;;;;;;;-145.63;100.00;61273.97;5032437;28;20109;-67
2024/01/27 03:46:08;;;;;;;14.05;9.82;;;;;;;-145.63;100.00;61273.97;5030918;28;20065;-68
2024/01/27 03:48:36;;;;;;;14.98;10.38;;;;;;;-145.63;100.00;61273.97;5015544;28;20037;-69
2024/01/27 03:51:02;;;;;;;17.98;11.63;;;;;;;-145.63;100.00;61273.97;5034657;28;20026;-67
2024/01/27 03:53:28;;;;;;;15.30;10.80;;;;;;;-145.63;100.00;61273.97;5035357;28;20415;-67
2024/01/27 03:55:54;;;;;;;18.45;11.43;;;;;;;-145.63;100.00;61273.97;5035743;28;20459;-67
2024/01/27 03:58:19;;;;;;;15.95;11.00;;;;;;;-145.63;100.00;61273.97;5035035;28;20029;-68
2024/01/27 04:00:45;;;;;;;17.05;11.02;;;;;;;-145.63;100.00;61273.97;5032033;28;20038;-68
2024/01/27 04:03:11;;;;;;;16.25;11.20;;;;;;;-145.63;100.00;61273.97;5034485;28;20037;-68
2024/01/27 04:05:37;;;;;;;16.42;10.50;;;;;;;-145.63;100.00;61273.97;5019007;28;20030;-67
2024/01/27 04:08:04;;;;;;;16.83;12.05;;;;;;;-145.63;100.00;61273.97;5026218;28;20072;-67
2024/01/27 04:10:30;;;;;;;15.93;11.45;;;;;;;-145.63;100.00;61273.97;5034939;28;20037;-70
2024/01/27 04:12:55;;;;;;;17.92;12.88;;;;;;;-145.63;100.00;61273.97;5034569;28;20033;-67
2024/01/27 04:15:21;;;;;;;20.40;12.63;;;;;;;-145.63;100.00;61273.97;5050039;28;20095;-68
2024/01/27 04:17:47;;;;;;;16.38;11.70;;;;;;;-145.63;100.00;61273.97;5033886;28;20021;-66
2024/01/27 04:20:12;;;;;;;19.65;12.38;;;;;;;-145.63;100.00;61273.97;5034708;28;20043;-67
2024/01/27 04:22:38;;;;;;;20.55;13.10;;;;;;;-145.63;100.00;61273.97;5023846;28;20033;-68
2024/01/27 04:25:04;;;;;;;17.45;12.38;;;;;;;-145.63;100.00;61273.97;5034577;28;20025;-67
2024/01/27 04:27:30;;;;;;;18.92;12.95;;;;;;;-145.63;100.00;61273.97;5016763;28;20058;-67
2024/01/27 04:29:59;;;;;;;18.05;12.75;;;;;;;-145.63;100.00;61273.97;5031688;28;20117;-67
2024/01/27 04:32:26;;;;;;;17.55;12.30;;;;;;;-145.63;100.00;61273.97;5034275;28;20067;-67
2024/01/27 04:34:52;;;;;;;17.73;12.43;;;;;;;-145.63;100.00;61273.97;5034346;28;20389;-67
2024/01/27 04:37:17;;;;;;;17.00;12.18;;;;;;;-145.63;100.00;61273.97;5034325;28;20041;-67
2024/01/27 04:39:43;;;;;;;18.27;13.27;;;;;;;-145.63;100.00;61273.97;5034111;28;20041;-67
2024/01/27 04:42:09;;;;;;;20.73;13.55;;;;;;;-145.63;100.00;61273.97;5032453;28;20044;-67
2024/01/27 04:44:35;;;;;;;19.67;12.88;;;;;;;-145.63;100.00;61273.97;5039018;28;20119;-68
2024/01/27 04:47:00;;;;;;;18.98;12.48;;;;;;;-145.63;100.00;61273.97;5040244;28;20029;-68
2024/01/27 04:49:27;;;;;;;19.73;13.57;;;;;;;-145.63;100.00;61273.97;5031627;28;20079;-66
2024/01/27 04:51:53;;;;;;;17.73;12.65;;;;;;;-145.63;100.00;61273.97;5033847;28;20026;-66
2024/01/27 04:54:18;;;;;;;19.45;12.43;;;;;;;-145.63;100.00;61273.97;5034012;28;20490;-67
2024/01/27 04:56:44;;;;;;;17.30;12.75;;;;;;;-145.63;100.00;61273.97;5033959;28;20044;-66
2024/01/27 04:59:09;;;;;;;16.67;11.82;;;;;;;-145.63;100.00;61273.97;5033818;28;20033;-67
2024/01/27 05:01:35;;;;;;;18.17;12.27;;;;;;;-145.63;100.00;61273.97;5033656;28;20104;-67
2024/01/27 05:04:00;;;;;;;19.85;12.27;;;;;;;-145.63;100.00;61273.97;5033863;28;20036;-68
2024/01/27 05:06:26;;;;;;;18.23;12.18;;;;;;;-145.63;100.00;61273.97;5025103;28;20200;-67
2024/01/27 05:08:51;;;;;;;16.70;12.05;;;;;;;-145.63;100.00;61273.97;5031702;28;20044;-68
2024/01/27 05:11:37;;;;;;;17.98;12.10;;;;;;;-145.63;100.00;61273.97;5033241;28;20033;-67
2024/01/27 05:14:03;;;;;;;18.83;12.55;;;;;;;-145.63;100.00;61273.97;5033255;28;20045;-67
2024/01/27 05:16:29;;;;;;;17.80;12.70;;;;;;;-145.63;100.00;61273.97;5033662;28;20025;-67
2024/01/27 05:18:54;;;;;;;19.50;12.70;;;;;;;-145.63;100.00;61273.97;5033684;28;20045;-67
2024/01/27 05:21:20;;;;;;;15.15;11.32;;;;;;;-145.63;100.00;61273.97;5033014;28;20041;-68
2024/01/27 05:23:45;;;;;;;20.63;13.50;;;;;;;-145.63;100.00;61273.97;5033689;28;20033;-68
2024/01/27 05:26:11;;;;;;;20.85;13.63;;;;;;;-145.63;100.00;61273.97;5026539;28;20049;-67
2024/01/27 05:28:38;;;;;;;21.10;12.82;;;;;;;-145.63;100.00;61273.97;5020207;28;20095;-67
2024/01/27 05:31:07;;;;;;;18.83;13.13;;;;;;;-145.63;100.00;61273.97;5032742;28;20532;-67
2024/01/27 05:33:32;;;;;;;18.60;13.13;;;;;;;-145.63;100.00;61273.97;5033868;28;20120;-67
2024/01/27 05:35:58;;;;;;;18.20;12.43;;;;;;;-145.63;100.00;61273.97;5033182;28;20069;-68
2024/01/27 05:38:24;;;;;;;19.38;13.48;;;;;;;-145.63;100.00;61273.97;5030296;28;20459;-66
2024/01/27 05:40:50;;;;;;;17.33;12.10;;;;;;;-145.63;100.00;61273.97;5033402;28;20445;-68
2024/01/27 05:43:16;;;;;;;19.60;12.38;;;;;;;-145.63;100.00;61273.97;5033113;28;20106;-67
2024/01/27 05:45:41;;;;;;;22.15;13.85;;;;;;;-145.63;100.00;61273.97;5021942;28;20328;-67
2024/01/27 05:48:07;;;;;;;21.02;13.05;;;;;;;-145.63;100.00;61273.97;5032810;28;20109;-66
2024/01/27 05:50:34;;;;;;;18.75;12.43;;;;;;;-145.63;100.00;61273.97;5031497;28;20030;-68
2024/01/27 05:52:59;;;;;;;19.70;13.32;;;;;;;-145.63;100.00;61273.97;5022171;28;20050;-67
2024/01/27 05:55:25;;;;;;;20.02;13.20;;;;;;;-145.63;100.00;61273.97;5018640;28;20037;-67
2024/01/27 05:57:51;;;;;;;19.58;13.05;;;;;;;-145.63;100.00;61273.97;5033114;28;20032;-67
2024/01/27 06:00:16;;;;;;;19.65;13.75;;;;;;;-145.63;100.00;61273.97;5031841;28;20433;-67
2024/01/27 06:02:42;;;;;;;18.95;12.50;;;;;;;-145.63;100.00;61273.97;5032886;28;20446;-66
2024/01/27 06:05:09;;;;;;;22.65;14.52;;;;;;;-145.63;100.00;61273.97;5032725;28;20033;-67
2024/01/27 06:07:38;;;;;;;21.63;13.27;;;;;;;-145.63;100.00;61273.97;5026165;28;20046;-67
2024/01/27 06:10:04;;;;;;;21.65;14.05;;;;;;;-145.63;100.00;61273.97;5015323;28;20112;-66
2024/01/27 06:12:31;;;;;;;22.38;13.80;;;;;;;-145.63;100.00;61273.97;5032786;28;20057;-67
2024/01/27 06:14:58;;;;;;;22.85;13.95;;;;;;;-145.63;100.00;61273.97;5032848;28;20037;-68
2024/01/27 06:17:24;;;;;;;21.27;14.52;;;;;;;-145.63;100.00;61273.97;5032633;28;20033;-66
2024/01/27 06:19:49;;;;;;;21.40;14.35;;;;;;;-145.63;100.00;61273.97;5032184;28;20036;-67
2024/01/27 06:22:15;;;;;;;25.90;15.00;;;;;;;-145.63;100.00;61273.97;5032313;28;20458;-68
2024/01/27 06:24:44;;;;;;;24.52;15.18;;;;;;;-145.63;100.00;61273.97;5032475;28;20109;-66
2024/01/27 06:27:10;;;;;;;24.75;15.93;;;;;;;-145.63;100.00;61273.97;5017203;28;20033;-67
2024/01/27 06:29:35;;;;;;;24.77;14.65;;;;;;;-145.63;100.00;61273.97;5027774;28;20088;-66
2024/01/27 06:32:01;;;;;;;23.95;14.85;;;;;;;-145.63;100.00;61273.97;5032914;28;20022;-67
2024/01/27 06:34:27;;;;;;;22.85;14.60;;;;;;;-145.63;100.00;61273.97;5032791;28;20045;-70
2024/01/27 06:36:52;;;;;;;20.85;14.32;;;;;;;-145.63;100.00;61273.97;5031347;28;20054;-67
2024/01/27 06:39:18;;;;;;;25.67;14.85;;;;;;;-145.63;100.00;61273.97;5032760;28;20054;-66
2024/01/27 06:41:43;;;;;;;22.92;14.90;;;;;;;-145.63;100.00;61273.97;5036049;28;20056;-69
2024/01/27 06:44:09;;;;;;;23.23;15.52;;;;;;;-145.63;100.00;61273.97;5038252;28;20120;-68
2024/01/27 06:46:35;;;;;;;23.30;14.50;;;;;;;-145.63;100.00;61273.97;5046346;28;20045;-68
2024/01/27 06:49:00;;;;;;;21.75;14.43;;;;;;;-145.63;100.00;61273.97;5034790;28;20478;-68
2024/01/27 06:51:26;;;;;;;24.67;15.20;;;;;;;-145.63;100.00;61273.97;5036360;28;20033;-67
2024/01/27 06:53:51;;;;;;;23.20;13.95;;;;;;;-145.63;100.00;61273.97;5036324;28;20025;-67
2024/01/27 06:56:17;;;;;;;23.73;14.38;;;;;;;-145.63;100.00;61273.97;5036830;28;20038;-67
2024/01/27 06:58:42;;;;;;;23.25;14.60;;;;;;;-145.63;100.00;61273.97;5036344;28;20037;-67
2024/01/27 07:01:08;;;;;;;25.50;15.10;;;;;;;-145.63;100.00;61273.97;5035655;28;20057;-67
2024/01/27 07:03:34;;;;;;;22.52;14.88;;;;;;;-145.63;100.00;61273.97;5035530;28;20027;-67
2024/01/27 07:06:01;;;;;;;22.52;14.75;;;;;;;-145.63;100.00;61273.97;5035651;28;20040;-68
2024/01/27 07:08:26;;;;;;;22.40;14.07;;;;;;;-145.63;100.00;61273.97;5022869;28;20033;-67
2024/01/27 07:10:52;;;;;;;24.85;15.38;;;;;;;-145.63;100.00;61273.97;5024805;28;20060;-67
2024/01/27 07:13:18;;;;;;;22.30;14.20;;;;;;;-145.63;100.00;61273.97;5035820;28;20034;-66
2024/01/27 07:15:43;;;;;;;23.00;15.10;;;;;;;-145.63;100.00;61273.97;5036460;28;20029;-68
2024/01/27 07:18:10;;;;;;;24.42;13.88;;;;;;;-145.63;100.00;61273.97;5036093;28;20052;-67
2024/01/27 07:20:35;;;;;;;24.77;14.52;;;;;;;-145.63;100.00;61273.97;5033220;28;20039;-68
2024/01/27 07:23:01;;;;;;;22.80;13.68;;;;;;;-145.63;100.00;61273.97;5035681;28;20029;-69
2024/01/27 07:25:28;;;;;;;22.15;13.75;;;;;;;-145.63;100.00;61273.97;5036160;28;20061;-69
2024/01/27 07:27:54;;;;;;;22.08;13.98;;;;;;;-145.63;100.00;61273.97;5035859;28;20041;-68
2024/01/27 07:30:19;;;;;;;25.42;14.50;;;;;;;-145.63;100.00;61273.97;5015939;28;20062;-66
2024/01/27 07:32:45;;;;;;;22.80;14.32;;;;;;;-145.63;100.00;61273.97;5031505;28;20399;-67
2024/01/27 07:35:11;;;;;;;22.20;13.18;;;;;;;-145.63;100.00;61273.97;5035445;28;20040;-68
2024/01/27 07:37:36;;;;;;;20.15;12.93;;;;;;;-145.63;100.00;61273.97;5035822;28;20049;-68
2024/01/27 07:40:02;;;;;;;23.85;14.68;;;;;;;-145.63;100.00;61273.97;5035223;28;20080;-66
2024/01/27 07:42:28;;;;;;;21.83;14.63;;;;;;;-145.63;100.00;61273.97;5035480;28;20127;-68
2024/01/27 07:44:54;;;;;;;22.83;14.95;;;;;;;-145.63;100.00;61273.97;5043150;28;20134;-67
2024/01/27 07:47:20;;;;;;;37.25;21.13;;;;;;;-145.63;100.00;61273.97;5003618;28;20046;-67
2024/01/27 07:49:45;;;;;;;22.10;14.77;;;;;;;-145.63;100.00;61273.97;5016282;28;20033;-68
2024/01/27 07:52:11;;;;;;;20.75;13.73;;;;;;;-145.63;100.00;61273.97;5016915;28;20037;-66
2024/01/27 07:54:38;;;;;;;25.38;14.80;;;;;;;-145.63;100.00;61273.97;5035617;28;20454;-67
2024/01/27 07:57:05;;;;;;;20.33;14.20;;;;;;;-145.63;100.00;61273.97;5035151;28;20140;-67
2024/01/27 07:59:31;;;;;;;24.40;14.98;;;;;;;-145.63;100.00;61273.97;5034032;28;20033;-67
2024/01/27 08:01:56;;;;;;;29.20;14.32;;;;;;;-145.63;100.00;61273.97;5034852;28;20113;-70
2024/01/27 08:04:22;;;;;;;47.92;27.38;;;;;;;-145.63;100.00;61273.97;5034185;28;20026;-68
2024/01/27 08:06:49;;;;;;;26.17;14.95;;;;;;;-145.63;100.00;61273.97;5034507;28;20041;-67
2024/01/27 08:09:15;;;;;;;22.98;13.77;;;;;;;-145.63;100.00;61273.97;5034611;28;20108;-67
2024/01/27 08:11:41;;;;;;;20.02;13.45;;;;;;;-145.63;100.00;61273.97;5035149;28;20036;-67
2024/01/27 08:14:07;;;;;;;23.92;14.73;;;;;;;-145.63;100.00;61273.97;5031312;28;20029;-68
2024/01/27 08:16:32;;;;;;;21.35;14.02;;;;;;;-145.63;100.00;61273.97;5034347;28;20030;-69
2024/01/27 08:18:58;;;;;;;24.95;15.35;;;;;;;-145.63;100.00;61273.97;5034498;28;20037;-68
2024/01/27 08:21:23;;;;;;;21.98;14.25;;;;;;;-145.63;100.00;61273.97;5034775;28;20470;-67
2024/01/27 08:23:49;;;;;;;26.27;14.07;;;;;;;-145.63;100.00;61273.97;5034537;28;20033;-68
2024/01/27 08:26:15;;;;;;;20.50;13.85;;;;;;;-145.63;100.00;61273.97;5034491;28;20036;-68
2024/01/27 08:28:40;;;;;;;25.17;15.15;;;;;;;-145.63;100.00;61273.97;5028535;28;20036;-66
2024/01/27 08:31:06;;;;;;;23.20;14.18;;;;;;;-145.63;100.00;61273.97;5015350;28;20037;-68
2024/01/27 08:33:32;;;;;;;23.00;15.38;;;;;;;-145.63;100.00;61273.97;5034690;28;20090;-68
2024/01/27 08:35:57;;;;;;;25.10;14.68;;;;;;;-145.63;100.00;61273.97;5034522;28;20069;-68
2024/01/27 08:38:23;;;;;;;25.58;14.43;;;;;;;-145.63;100.00;61273.97;5033241;28;20041;-67
2024/01/27 08:40:49;;;;;;;24.42;14.10;;;;;;;-145.63;100.00;61273.97;5034955;28;20533;-67
2024/01/27 08:43:14;;;;;;;21.30;13.98;;;;;;;-145.63;100.00;61273.97;5033564;28;20065;-68
2024/01/27 08:45:40;;;;;;;31.30;16.13;;;;;;;-145.63;100.00;61273.97;5035127;28;20029;-67
2024/01/27 08:48:06;;;;;;;33.60;19.98;;;;;;;-145.63;100.00;61273.97;5032485;28;20029;-68
2024/01/27 08:50:32;;;;;;;22.40;13.57;;;;;;;-145.63;100.00;61273.97;5030864;28;20029;-67
2024/01/27 08:52:58;;;;;;;21.77;14.35;;;;;;;-145.63;100.00;61273.97;5022962;28;20067;-68
2024/01/27 08:55:24;;;;;;;25.13;14.63;;;;;;;-145.63;100.00;61273.97;5033022;28;20035;-67
2024/01/27 08:57:50;;;;;;;21.25;13.05;;;;;;;-145.63;100.00;61273.97;5033399;28;20081;-68
2024/01/27 09:00:16;;;;;;;22.60;13.55;;;;;;;-145.63;100.00;61273.97;5026126;28;20034;-68
2024/01/27 09:02:42;;;;;;;22.77;13.85;;;;;;;-145.63;100.00;61273.97;5024587;28;20041;-67
2024/01/27 09:05:08;;;;;;;21.80;13.68;;;;;;;-145.63;100.00;61273.97;5023486;28;20026;-67
2024/01/27 09:07:34;;;;;;;21.60;14.68;;;;;;;-145.63;100.00;61273.97;5021132;28;20046;-66
2024/01/27 09:10:00;;;;;;;25.45;13.55;;;;;;;-145.63;100.00;61273.97;5032920;28;20044;-69
2024/01/27 09:12:26;;;;;;;20.80;13.35;;;;;;;-145.63;100.00;61273.97;5033180;28;20041;-67
2024/01/27 09:14:53;;;;;;;28.48;15.82;;;;;;;-145.63;100.00;61273.97;5028895;28;20033;-71
2024/01/27 09:17:20;;;;;;;22.88;14.45;;;;;;;-145.63;100.00;61273.97;5022299;28;20475;-68
2024/01/27 09:19:45;;;;;;;24.63;14.18;;;;;;;-145.63;100.00;61273.97;5024551;28;20080;-67
2024/01/27 09:22:11;;;;;;;24.38;13.48;;;;;;;-145.63;100.00;61273.97;5027415;28;20471;-67
2024/01/27 09:24:37;;;;;;;21.55;14.57;;;;;;;-145.63;100.00;61273.97;5028519;28;20401;-68
2024/01/27 09:27:03;;;;;;;24.38;15.20;;;;;;;-145.63;100.00;61273.97;5021526;28;20080;-67
2024/01/27 09:29:29;;;;;;;24.42;14.68;;;;;;;-145.63;100.00;61273.97;5034508;28;20033;-70
2024/01/27 09:31:55;;;;;;;21.90;14.55;;;;;;;-145.63;100.00;61273.97;5013242;28;20037;-66
2024/01/27 09:34:21;;;;;;;22.98;14.98;;;;;;;-145.63;100.00;61273.97;5027438;28;20254;-69
2024/01/27 09:36:46;;;;;;;22.42;15.10;;;;;;;-145.63;100.00;61273.97;5034478;28;20068;-71
2024/01/27 09:39:12;;;;;;;29.63;14.80;;;;;;;-145.63;100.00;61273.97;5022565;28;20090;-65
2024/01/27 09:41:38;;;;;;;27.05;15.85;;;;;;;-145.63;100.00;61273.97;5038806;28;20048;-69
2024/01/27 09:44:05;;;;;;;21.42;14.55;;;;;;;-145.63;100.00;61273.97;5033055;28;20048;-68
2024/01/27 09:46:32;;;;;;;25.13;15.27;;;;;;;-145.63;100.00;61273.97;5032566;28;20030;-73
2024/01/27 09:48:58;;;;;;;20.95;14.43;;;;;;;-145.63;100.00;61273.97;5026972;28;20498;-67
2024/01/27 09:51:25;;;;;;;24.65;15.65;;;;;;;-145.63;100.00;61273.97;5035316;28;20033;-68
2024/01/27 09:53:51;;;;;;;23.38;14.60;;;;;;;-145.63;100.00;61273.97;5026677;28;20072;-68
2024/01/27 09:56:21;;;;;;;24.17;14.88;;;;;;;-145.63;100.00;61273.97;5023902;28;20116;-69
2024/01/27 09:58:49;;;;;;;25.65;15.70;;;;;;;-145.63;100.00;61273.97;5018350;28;20121;-68
2024/01/27 10:01:18;;;;;;;22.70;15.45;;;;;;;-145.63;100.00;61273.97;5031993;28;20037;-71
2024/01/27 10:03:43;;;;;;;24.90;15.35;;;;;;;-145.63;100.00;61273.97;5032723;28;20037;-68
2024/01/27 10:06:10;;;;;;;21.60;15.43;;;;;;;-145.63;100.00;61273.97;5029649;28;20133;-70
2024/01/27 10:08:36;;;;;;;23.27;15.20;;;;;;;-145.63;100.00;61273.97;5033455;28;20033;-68
2024/01/27 10:11:08;;;;;;;23.17;15.15;;;;;;;-145.63;100.00;61273.97;5030535;28;20037;-67
2024/01/27 10:13:34;;;;;;;22.27;15.20;;;;;;;-145.63;100.00;61273.97;5011776;28;20046;-68
2024/01/27 10:16:07;;;;;;;20.83;14.27;;;;;;;-145.63;100.00;61273.97;5030027;28;20042;-67
2024/01/27 10:18:34;;;;;;;21.40;14.52;;;;;;;-145.63;100.00;61273.97;5028638;28;20509;-69
2024/01/27 10:21:11;;;;;;;19.63;13.48;;;;;;;-145.63;100.00;61273.97;5028423;28;20044;-68
2024/01/27 10:23:39;;;;;;;25.90;16.02;;;;;;;-145.63;100.00;61273.97;5024236;28;20034;-68
2024/01/27 10:26:05;;;;;;;21.60;15.50;;;;;;;-145.63;100.00;61273.97;5021728;28;20113;-68
2024/01/27 10:28:33;;;;;;;21.83;14.57;;;;;;;-145.63;100.00;61273.97;5017554;28;20057;-71
2024/01/27 10:31:09;;;;;;;26.27;15.88;;;;;;;-145.63;100.00;61273.97;5017348;28;20507;-66
2024/01/27 10:33:35;;;;;;;26.38;15.27;;;;;;;-145.63;100.00;61273.97;5017816;28;20038;-67
2024/01/27 10:36:00;;;;;;;24.38;15.70;;;;;;;-145.63;100.00;61273.97;5033336;28;20057;-67
2024/01/27 10:38:37;;;;;;;25.15;15.75;;;;;;;-145.63;100.00;61273.97;5036694;28;20419;-66
2024/01/27 10:41:07;;;;;;;26.27;17.20;;;;;;;-145.63;100.00;61273.97;5025239;28;20029;-66
2024/01/27 10:43:35;;;;;;;;;;;;;;;-145.63;100.00;61273.97;5020706;28;20128;-67
2024/01/27 10:46:05;;;;;;;26.77;17.05;;;;;;;-145.63;100.00;61273.97;5033029;28;19917;-67
2024/01/27 10:48:33;;;;;;;27.15;19.00;;;;;;;-145.63;100.00;61273.97;5029728;28;20385;-66